sensor_id;sensor_type;location;lat;lon;timestamp;pressure;altitude;pressure_sealevel;temperature;humidity
49178;BME280;35016;55.674;37.468;2023-10-31T00:02:14;98334.97;;;9.32;79.55
49178;BME280;35016;55.674;37.468;2023-10-31T00:04:41;98334.97;;;9.32;79.11
49178;BME280;35016;55.674;37.468;2023-10-31T00:07:08;98348.50;;;9.32;79.12
49178;BME280;35016;55.674;37.468;2023-10-31T00:09:35;98342.28;;;9.31;79.21
49178;BME280;35016;55.674;37.468;2023-10-31T00:12:03;98341.47;;;9.31;79.00
49178;BME280;35016;55.674;37.468;2023-10-31T00:14:30;98344.75;;;9.28;79.44
49178;BME280;35016;55.674;37.468;2023-10-31T00:16:58;98347.72;;;9.26;79.62
49178;BME280;35016;55.674;37.468;2023-10-31T00:19:26;98353.94;;;9.27;79.53
49178;BME280;35016;55.674;37.468;2023-10-31T00:21:53;98358.53;;;9.26;78.64
49178;BME280;35016;55.674;37.468;2023-10-31T00:24:21;98354.22;;;9.25;79.52
49178;BME280;35016;55.674;37.468;2023-10-31T00:26:48;98355.28;;;9.24;79.19
49178;BME280;35016;55.674;37.468;2023-10-31T00:29:16;98358.28;;;9.23;79.51
49178;BME280;35016;55.674;37.468;2023-10-31T00:31:44;98368.00;;;9.24;78.84
49178;BME280;35016;55.674;37.468;2023-10-31T00:34:11;98361.25;;;9.21;79.44
49178;BME280;35016;55.674;37.468;2023-10-31T00:36:39;98355.31;;;9.19;79.01
49178;BME280;35016;55.674;37.468;2023-10-31T00:39:06;98374.78;;;9.21;79.07
49178;BME280;35016;55.674;37.468;2023-10-31T00:41:33;98370.19;;;9.22;79.56
49178;BME280;35016;55.674;37.468;2023-10-31T00:44:02;98377.19;;;9.23;79.01
49178;BME280;35016;55.674;37.468;2023-10-31T00:46:29;98374.50;;;9.23;79.68
49178;BME280;35016;55.674;37.468;2023-10-31T00:48:56;98373.69;;;9.22;79.16
49178;BME280;35016;55.674;37.468;2023-10-31T00:51:24;98383.69;;;9.22;78.90
49178;BME280;35016;55.674;37.468;2023-10-31T00:53:51;98378.56;;;9.20;78.94
49178;BME280;35016;55.674;37.468;2023-10-31T00:56:18;98387.75;;;9.24;79.30
49178;BME280;35016;55.674;37.468;2023-10-31T00:58:45;98378.81;;;9.24;79.37
49178;BME280;35016;55.674;37.468;2023-10-31T01:01:14;98400.22;;;9.25;78.95
49178;BME280;35016;55.674;37.468;2023-10-31T01:03:42;98400.47;;;9.24;78.72
49178;BME280;35016;55.674;37.468;2023-10-31T01:06:09;98397.50;;;9.25;79.30
49178;BME280;35016;55.674;37.468;2023-10-31T01:08:36;98403.97;;;9.24;78.60
49178;BME280;35016;55.674;37.468;2023-10-31T01:11:04;98413.19;;;9.23;78.88
49178;BME280;35016;55.674;37.468;2023-10-31T01:13:31;98404.25;;;9.23;78.81
49178;BME280;35016;55.674;37.468;2023-10-31T01:15:59;98416.97;;;9.22;78.80
49178;BME280;35016;55.674;37.468;2023-10-31T01:18:27;98419.94;;;9.21;78.57
49178;BME280;35016;55.674;37.468;2023-10-31T01:20:54;98420.22;;;9.19;78.56
49178;BME280;35016;55.674;37.468;2023-10-31T01:23:21;98421.59;;;9.17;78.83
49178;BME280;35016;55.674;37.468;2023-10-31T01:25:49;98426.19;;;9.16;78.41
49178;BME280;35016;55.674;37.468;2023-10-31T01:28:17;98429.72;;;9.17;79.06
49178;BME280;35016;55.674;37.468;2023-10-31T01:30:44;98428.91;;;9.16;78.58
49178;BME280;35016;55.674;37.468;2023-10-31T01:33:11;98434.59;;;9.15;78.91
49178;BME280;35016;55.674;37.468;2023-10-31T01:35:40;98441.63;;;9.16;78.77
49178;BME280;35016;55.674;37.468;2023-10-31T01:38:07;98449.44;;;9.17;78.87
49178;BME280;35016;55.674;37.468;2023-10-31T01:40:34;98456.75;;;9.17;78.35
49178;BME280;35016;55.674;37.468;2023-10-31T01:43:02;98449.72;;;9.16;78.92
49178;BME280;35016;55.674;37.468;2023-10-31T01:45:29;98448.63;;;9.17;78.60
49178;BME280;35016;55.674;37.468;2023-10-31T01:47:57;98449.44;;;9.17;78.72
49178;BME280;35016;55.674;37.468;2023-10-31T01:50:25;98456.47;;;9.18;78.61
49178;BME280;35016;55.674;37.468;2023-10-31T01:52:52;98463.78;;;9.18;78.75
49178;BME280;35016;55.674;37.468;2023-10-31T01:55:19;98471.63;;;9.19;78.60
49178;BME280;35016;55.674;37.468;2023-10-31T01:57:49;98468.91;;;9.19;78.69
49178;BME280;35016;55.674;37.468;2023-10-31T02:00:16;98462.69;;;9.19;78.80
49178;BME280;35016;55.674;37.468;2023-10-31T02:02:44;98466.50;;;9.18;78.80
49178;BME280;35016;55.674;37.468;2023-10-31T02:05:11;98473.25;;;9.15;78.39
49178;BME280;35016;55.674;37.468;2023-10-31T02:07:39;98480.84;;;9.13;78.36
49178;BME280;35016;55.674;37.468;2023-10-31T02:10:06;98486.25;;;9.13;78.81
49178;BME280;35016;55.674;37.468;2023-10-31T02:12:37;98485.72;;;9.11;78.65
49178;BME280;35016;55.674;37.468;2023-10-31T02:15:05;98482.47;;;9.09;78.64
49178;BME280;35016;55.674;37.468;2023-10-31T02:17:34;98497.63;;;9.10;78.77
49178;BME280;35016;55.674;37.468;2023-10-31T02:20:02;98501.13;;;9.11;78.83
49178;BME280;35016;55.674;37.468;2023-10-31T02:22:31;98499.25;;;9.11;79.07
49178;BME280;35016;55.674;37.468;2023-10-31T02:24:58;98496.25;;;9.13;78.88
49178;BME280;35016;55.674;37.468;2023-10-31T02:27:25;98497.06;;;9.13;78.79
49178;BME280;35016;55.674;37.468;2023-10-31T02:29:53;98493.56;;;9.13;78.55
49178;BME280;35016;55.674;37.468;2023-10-31T02:32:20;98500.84;;;9.12;78.91
49178;BME280;35016;55.674;37.468;2023-10-31T02:34:47;98501.66;;;9.13;79.18
49178;BME280;35016;55.674;37.468;2023-10-31T02:37:15;98507.34;;;9.11;78.41
49178;BME280;35016;55.674;37.468;2023-10-31T02:39:42;98507.63;;;9.10;78.80
49178;BME280;35016;55.674;37.468;2023-10-31T02:42:09;98511.69;;;9.12;78.76
49178;BME280;35016;55.674;37.468;2023-10-31T02:44:36;98520.59;;;9.13;79.06
49178;BME280;35016;55.674;37.468;2023-10-31T02:47:04;98515.19;;;9.13;78.79
49178;BME280;35016;55.674;37.468;2023-10-31T02:49:31;98519.50;;;9.14;79.20
49178;BME280;35016;55.674;37.468;2023-10-31T02:51:59;98523.84;;;9.15;79.31
49178;BME280;35016;55.674;37.468;2023-10-31T02:54:26;98531.16;;;9.14;79.52
49178;BME280;35016;55.674;37.468;2023-10-31T02:56:54;98538.16;;;9.15;79.10
49178;BME280;35016;55.674;37.468;2023-10-31T02:59:21;98540.06;;;9.15;79.34
49178;BME280;35016;55.674;37.468;2023-10-31T03:01:48;98538.16;;;9.15;79.04
49178;BME280;35016;55.674;37.468;2023-10-31T03:04:16;98542.78;;;9.15;79.27
49178;BME280;35016;55.674;37.468;2023-10-31T03:06:44;98550.06;;;9.14;79.36
49178;BME280;35016;55.674;37.468;2023-10-31T03:09:11;98550.34;;;9.13;79.29
49178;BME280;35016;55.674;37.468;2023-10-31T03:11:38;98550.06;;;9.14;79.45
49178;BME280;35016;55.674;37.468;2023-10-31T03:14:05;98558.19;;;9.14;79.29
49178;BME280;35016;55.674;37.468;2023-10-31T03:16:51;98554.41;;;9.15;79.01
49178;BME280;35016;55.674;37.468;2023-10-31T03:19:18;98551.41;;;9.17;79.17
49178;BME280;35016;55.674;37.468;2023-10-31T03:21:45;98551.41;;;9.17;79.34
49178;BME280;35016;55.674;37.468;2023-10-31T03:24:13;98553.31;;;9.16;79.22
49178;BME280;35016;55.674;37.468;2023-10-31T03:26:40;98556.84;;;9.17;79.27
49178;BME280;35016;55.674;37.468;2023-10-31T03:29:07;98559.81;;;9.15;79.41
49178;BME280;35016;55.674;37.468;2023-10-31T03:31:35;98569.53;;;9.16;79.12
49178;BME280;35016;55.674;37.468;2023-10-31T03:34:02;98565.75;;;9.17;79.42
49178;BME280;35016;55.674;37.468;2023-10-31T03:36:29;98568.72;;;9.16;79.39
49178;BME280;35016;55.674;37.468;2023-10-31T03:38:57;98569.28;;;9.18;79.11
49178;BME280;35016;55.674;37.468;2023-10-31T03:41:24;98568.19;;;9.19;79.52
49178;BME280;35016;55.674;37.468;2023-10-31T03:43:51;98570.09;;;9.18;79.35
49178;BME280;35016;55.674;37.468;2023-10-31T03:46:19;98569.28;;;9.18;79.37
49178;BME280;35016;55.674;37.468;2023-10-31T03:48:46;98569.00;;;9.19;79.18
49178;BME280;35016;55.674;37.468;2023-10-31T03:51:13;98577.38;;;9.18;79.58
49178;BME280;35016;55.674;37.468;2023-10-31T03:53:40;98573.34;;;9.15;79.13
49178;BME280;35016;55.674;37.468;2023-10-31T03:56:07;98574.41;;;9.14;79.55
49178;BME280;35016;55.674;37.468;2023-10-31T03:58:35;98579.28;;;9.12;79.40
49178;BME280;35016;55.674;37.468;2023-10-31T04:01:02;98586.59;;;9.12;78.88
49178;BME280;35016;55.674;37.468;2023-10-31T04:03:29;98584.69;;;9.12;79.11
49178;BME280;35016;55.674;37.468;2023-10-31T04:05:56;98590.38;;;9.11;79.52
49178;BME280;35016;55.674;37.468;2023-10-31T04:08:24;98587.13;;;9.09;79.51
49178;BME280;35016;55.674;37.468;2023-10-31T04:10:51;98593.09;;;9.06;79.22
49178;BME280;35016;55.674;37.468;2023-10-31T04:13:18;98598.22;;;9.07;79.25
49178;BME280;35016;55.674;37.468;2023-10-31T04:15:45;98603.38;;;9.09;78.84
49178;BME280;35016;55.674;37.468;2023-10-31T04:18:13;98601.47;;;9.09;78.92
49178;BME280;35016;55.674;37.468;2023-10-31T04:20:41;98605.81;;;9.10;79.12
49178;BME280;35016;55.674;37.468;2023-10-31T04:23:08;98605.25;;;9.08;79.12
49178;BME280;35016;55.674;37.468;2023-10-31T04:25:36;98599.84;;;9.13;79.13
49178;BME280;35016;55.674;37.468;2023-10-31T04:28:03;98601.75;;;9.13;79.30
49178;BME280;35016;55.674;37.468;2023-10-31T04:30:30;98606.88;;;9.14;79.62
49178;BME280;35016;55.674;37.468;2023-10-31T04:32:58;98603.09;;;9.15;78.92
49178;BME280;35016;55.674;37.468;2023-10-31T04:35:25;98610.38;;;9.15;79.26
49178;BME280;35016;55.674;37.468;2023-10-31T04:37:52;98614.72;;;9.16;79.60
49178;BME280;35016;55.674;37.468;2023-10-31T04:40:19;98620.94;;;9.16;79.55
49178;BME280;35016;55.674;37.468;2023-10-31T04:42:47;98622.03;;;9.15;79.33
49178;BME280;35016;55.674;37.468;2023-10-31T04:45:14;98625.81;;;9.14;79.60
49178;BME280;35016;55.674;37.468;2023-10-31T04:47:41;98640.69;;;9.17;79.56
49178;BME280;35016;55.674;37.468;2023-10-31T04:50:09;98634.72;;;9.20;79.63
49178;BME280;35016;55.674;37.468;2023-10-31T04:52:37;98634.19;;;9.23;79.74
49178;BME280;35016;55.674;37.468;2023-10-31T04:55:04;98632.28;;;9.23;79.49
49178;BME280;35016;55.674;37.468;2023-10-31T04:57:32;98635.81;;;9.24;79.66
49178;BME280;35016;55.674;37.468;2023-10-31T04:59:59;98640.69;;;9.27;79.42
49178;BME280;35016;55.674;37.468;2023-10-31T05:02:26;98639.59;;;9.28;79.62
49178;BME280;35016;55.674;37.468;2023-10-31T05:04:55;98645.56;;;9.30;79.09
49178;BME280;35016;55.674;37.468;2023-10-31T05:07:25;98642.84;;;9.30;79.01
49178;BME280;35016;55.674;37.468;2023-10-31T05:09:52;98636.63;;;9.35;79.54
49178;BME280;35016;55.674;37.468;2023-10-31T05:12:19;98649.88;;;9.36;79.59
49178;BME280;35016;55.674;37.468;2023-10-31T05:14:47;98641.75;;;9.41;79.77
49178;BME280;35016;55.674;37.468;2023-10-31T05:17:14;98656.34;;;9.45;79.26
49178;BME280;35016;55.674;37.468;2023-10-31T05:19:42;98660.13;;;9.49;79.40
49178;BME280;35016;55.674;37.468;2023-10-31T05:22:09;98660.13;;;9.49;79.58
49178;BME280;35016;55.674;37.468;2023-10-31T05:24:36;98665.81;;;9.58;79.63
49178;BME280;35016;55.674;37.468;2023-10-31T05:27:03;98669.34;;;9.58;78.93
49178;BME280;35016;55.674;37.468;2023-10-31T05:29:32;98667.44;;;9.59;79.59
49178;BME280;35016;55.674;37.468;2023-10-31T05:31:59;98667.16;;;9.66;79.27
49178;BME280;35016;55.674;37.468;2023-10-31T05:34:31;98664.47;;;9.60;79.33
49178;BME280;35016;55.674;37.468;2023-10-31T05:36:59;98683.91;;;9.73;79.06
49178;BME280;35016;55.674;37.468;2023-10-31T05:39:26;98706.13;;;9.75;78.69
49178;BME280;35016;55.674;37.468;2023-10-31T05:41:54;98697.44;;;9.78;79.06
49178;BME280;35016;55.674;37.468;2023-10-31T05:44:21;98697.44;;;9.78;78.43
49178;BME280;35016;55.674;37.468;2023-10-31T05:46:48;98704.19;;;9.80;78.57
49178;BME280;35016;55.674;37.468;2023-10-31T05:49:16;98710.69;;;9.79;79.00
49178;BME280;35016;55.674;37.468;2023-10-31T05:51:43;98712.06;;;9.77;78.42
49178;BME280;35016;55.674;37.468;2023-10-31T05:54:11;98706.91;;;9.80;78.81
49178;BME280;35016;55.674;37.468;2023-10-31T05:56:38;98712.84;;;9.82;79.09
49178;BME280;35016;55.674;37.468;2023-10-31T05:59:08;98720.16;;;9.82;78.38
49178;BME280;35016;55.674;37.468;2023-10-31T06:01:35;98728.31;;;9.87;78.43
49178;BME280;35016;55.674;37.468;2023-10-31T06:04:02;98734.00;;;9.90;78.28
49178;BME280;35016;55.674;37.468;2023-10-31T06:06:32;98737.50;;;9.91;78.36
49178;BME280;35016;55.674;37.468;2023-10-31T06:08:59;98740.75;;;9.93;78.25
49178;BME280;35016;55.674;37.468;2023-10-31T06:11:28;98746.69;;;9.95;77.92
49178;BME280;35016;55.674;37.468;2023-10-31T06:13:55;98747.78;;;9.99;77.98
49178;BME280;35016;55.674;37.468;2023-10-31T06:16:22;98750.75;;;10.03;78.55
49178;BME280;35016;55.674;37.468;2023-10-31T06:18:49;98747.75;;;10.04;77.95
49178;BME280;35016;55.674;37.468;2023-10-31T06:21:17;98750.72;;;10.08;77.88
49178;BME280;35016;55.674;37.468;2023-10-31T06:23:44;98742.06;;;10.11;78.01
49178;BME280;35016;55.674;37.468;2023-10-31T06:26:13;98736.13;;;10.14;77.95
49178;BME280;35016;55.674;37.468;2023-10-31T06:28:40;98738.81;;;10.24;77.69
49178;BME280;35016;55.674;37.468;2023-10-31T06:31:23;98746.38;;;10.32;77.78
49178;BME280;35016;55.674;37.468;2023-10-31T06:33:50;98742.53;;;10.38;77.98
49178;BME280;35016;55.674;37.468;2023-10-31T06:36:17;98752.59;;;10.43;77.86
49178;BME280;35016;55.674;37.468;2023-10-31T06:38:44;98747.94;;;10.48;78.28
49178;BME280;35016;55.674;37.468;2023-10-31T06:41:12;98747.66;;;10.55;77.43
49178;BME280;35016;55.674;37.468;2023-10-31T06:43:39;98753.84;;;10.61;77.62
49178;BME280;35016;55.674;37.468;2023-10-31T06:46:06;98751.91;;;10.66;77.76
49178;BME280;35016;55.674;37.468;2023-10-31T06:48:34;98751.13;;;10.71;77.26
49178;BME280;35016;55.674;37.468;2023-10-31T06:51:01;98756.78;;;10.74;77.04
49178;BME280;35016;55.674;37.468;2023-10-31T06:53:28;98766.78;;;10.79;77.35
49178;BME280;35016;55.674;37.468;2023-10-31T06:55:55;98768.13;;;10.81;76.92
49178;BME280;35016;55.674;37.468;2023-10-31T06:58:22;98769.47;;;10.84;76.48
49178;BME280;35016;55.674;37.468;2023-10-31T07:00:49;98780.84;;;10.86;77.05
49178;BME280;35016;55.674;37.468;2023-10-31T07:03:17;98784.09;;;10.88;76.99
49178;BME280;35016;55.674;37.468;2023-10-31T07:05:45;98783.81;;;10.90;76.54
49178;BME280;35016;55.674;37.468;2023-10-31T07:08:12;98797.09;;;10.91;77.00
49178;BME280;35016;55.674;37.468;2023-10-31T07:10:40;98795.47;;;10.90;77.08
49178;BME280;35016;55.674;37.468;2023-10-31T07:13:07;98797.34;;;10.95;76.89
49178;BME280;35016;55.674;37.468;2023-10-31T07:15:34;98806.84;;;11.02;77.18
49178;BME280;35016;55.674;37.468;2023-10-31T07:18:06;98807.09;;;11.06;76.49
49178;BME280;35016;55.674;37.468;2023-10-31T07:20:36;98813.03;;;11.08;76.62
49178;BME280;35016;55.674;37.468;2023-10-31T07:23:04;98821.44;;;11.11;75.87
49178;BME280;35016;55.674;37.468;2023-10-31T07:25:31;98824.66;;;11.13;76.43
49178;BME280;35016;55.674;37.468;2023-10-31T07:27:58;98830.38;;;11.12;76.50
49178;BME280;35016;55.674;37.468;2023-10-31T07:30:25;98832.00;;;11.13;75.77
49178;BME280;35016;55.674;37.468;2023-10-31T07:32:53;98833.91;;;11.12;76.02
49178;BME280;35016;55.674;37.468;2023-10-31T07:35:20;98829.56;;;11.11;76.47
49178;BME280;35016;55.674;37.468;2023-10-31T07:37:48;98834.69;;;11.18;76.08
49178;BME280;35016;55.674;37.468;2023-10-31T07:40:15;98825.13;;;11.26;75.69
49178;BME280;35016;55.674;37.468;2023-10-31T07:42:44;98832.38;;;11.40;76.07
49178;BME280;35016;55.674;37.468;2023-10-31T07:45:11;98844.50;;;11.53;75.67
49178;BME280;35016;55.674;37.468;2023-10-31T07:47:38;98836.81;;;11.70;75.88
49178;BME280;35016;55.674;37.468;2023-10-31T07:50:06;98840.25;;;11.86;75.43
49178;BME280;35016;55.674;37.468;2023-10-31T07:52:33;98848.56;;;12.00;74.63
49178;BME280;35016;55.674;37.468;2023-10-31T07:55:01;98840.84;;;12.12;74.73
49178;BME280;35016;55.674;37.468;2023-10-31T07:57:30;98848.41;;;12.20;74.45
49178;BME280;35016;55.674;37.468;2023-10-31T07:59:58;98849.66;;;12.28;73.83
49178;BME280;35016;55.674;37.468;2023-10-31T08:02:25;98851.28;;;12.29;73.52
49178;BME280;35016;55.674;37.468;2023-10-31T08:04:52;98844.34;;;12.18;73.47
49178;BME280;35016;55.674;37.468;2023-10-31T08:07:19;98857.72;;;12.09;73.27
49178;BME280;35016;55.674;37.468;2023-10-31T08:09:47;98860.56;;;11.94;72.78
49178;BME280;35016;55.674;37.468;2023-10-31T08:12:14;98853.56;;;11.83;73.32
49178;BME280;35016;55.674;37.468;2023-10-31T08:14:41;98854.97;;;11.75;73.21
49178;BME280;35016;55.674;37.468;2023-10-31T08:17:09;98863.44;;;11.68;73.54
49178;BME280;35016;55.674;37.468;2023-10-31T08:19:36;98852.91;;;11.62;73.25
49178;BME280;35016;55.674;37.468;2023-10-31T08:22:05;98859.19;;;11.57;73.57
49178;BME280;35016;55.674;37.468;2023-10-31T08:24:33;98866.81;;;11.50;73.81
49178;BME280;35016;55.674;37.468;2023-10-31T08:27:04;98862.75;;;11.47;73.49
49178;BME280;35016;55.674;37.468;2023-10-31T08:29:31;98863.59;;;11.43;73.61
49178;BME280;35016;55.674;37.468;2023-10-31T08:31:58;98854.88;;;11.46;73.54
49178;BME280;35016;55.674;37.468;2023-10-31T08:34:26;98858.94;;;11.48;73.95
49178;BME280;35016;55.674;37.468;2023-10-31T08:36:53;98863.53;;;11.53;73.52
49178;BME280;35016;55.674;37.468;2023-10-31T08:39:20;98863.22;;;11.60;73.40
49178;BME280;35016;55.674;37.468;2023-10-31T08:41:54;98864.81;;;11.66;72.81
49178;BME280;35016;55.674;37.468;2023-10-31T08:44:22;98870.44;;;11.74;73.29
49178;BME280;35016;55.674;37.468;2023-10-31T08:46:50;98867.16;;;11.88;73.09
49178;BME280;35016;55.674;37.468;2023-10-31T08:49:17;98869.44;;;12.04;72.66
49178;BME280;35016;55.674;37.468;2023-10-31T08:51:44;98869.09;;;12.16;72.44
49178;BME280;35016;55.674;37.468;2023-10-31T08:54:11;98863.84;;;12.25;72.38
49178;BME280;35016;55.674;37.468;2023-10-31T08:56:38;98861.66;;;12.27;72.04
49178;BME280;35016;55.674;37.468;2023-10-31T08:59:06;98864.59;;;12.30;72.05
49178;BME280;35016;55.674;37.468;2023-10-31T09:01:33;98870.56;;;12.32;71.84
49178;BME280;35016;55.674;37.468;2023-10-31T09:04:00;98865.69;;;12.29;71.46
49178;BME280;35016;55.674;37.468;2023-10-31T09:06:28;98861.34;;;12.28;71.55
49178;BME280;35016;55.674;37.468;2023-10-31T09:08:55;98851.59;;;12.27;71.32
49178;BME280;35016;55.674;37.468;2023-10-31T09:11:22;98865.16;;;12.27;70.99
49178;BME280;35016;55.674;37.468;2023-10-31T09:13:49;98865.69;;;12.29;71.25
49178;BME280;35016;55.674;37.468;2023-10-31T09:16:16;98864.53;;;12.35;71.30
49178;BME280;35016;55.674;37.468;2023-10-31T09:18:44;98868.84;;;12.41;71.03
49178;BME280;35016;55.674;37.468;2023-10-31T09:21:11;98869.38;;;12.44;70.90
49178;BME280;35016;55.674;37.468;2023-10-31T09:23:38;98881.91;;;12.39;70.36
49178;BME280;35016;55.674;37.468;2023-10-31T09:26:05;98873.81;;;12.34;70.31
49178;BME280;35016;55.674;37.468;2023-10-31T09:28:32;98877.84;;;12.37;70.59
49178;BME280;35016;55.674;37.468;2023-10-31T09:30:59;98872.66;;;12.40;70.64
49178;BME280;35016;55.674;37.468;2023-10-31T09:33:28;98862.28;;;12.48;70.19
49178;BME280;35016;55.674;37.468;2023-10-31T09:35:55;98867.88;;;12.56;70.02
49178;BME280;35016;55.674;37.468;2023-10-31T09:38:23;98859.66;;;12.61;69.97
49178;BME280;35016;55.674;37.468;2023-10-31T09:40:50;98858.50;;;12.67;69.72
49178;BME280;35016;55.674;37.468;2023-10-31T09:43:17;98863.06;;;12.72;69.73
49178;BME280;35016;55.674;37.468;2023-10-31T09:45:45;98857.59;;;12.77;69.17
49178;BME280;35016;55.674;37.468;2023-10-31T09:48:13;98854.31;;;12.80;69.28
49178;BME280;35016;55.674;37.468;2023-10-31T09:50:41;98866.56;;;12.78;69.21
49178;BME280;35016;55.674;37.468;2023-10-31T09:53:08;98867.69;;;12.77;69.08
49178;BME280;35016;55.674;37.468;2023-10-31T09:55:36;98862.00;;;12.73;69.34
49178;BME280;35016;55.674;37.468;2023-10-31T09:58:04;98850.31;;;12.73;69.02
49178;BME280;35016;55.674;37.468;2023-10-31T10:00:31;98856.81;;;12.71;69.25
49178;BME280;35016;55.674;37.468;2023-10-31T10:02:59;98860.94;;;12.69;69.02
49178;BME280;35016;55.674;37.468;2023-10-31T10:05:27;98869.50;;;12.57;68.95
49178;BME280;35016;55.674;37.468;2023-10-31T10:07:56;98874.25;;;12.47;69.17
49178;BME280;35016;55.674;37.468;2023-10-31T10:10:24;98873.00;;;12.34;69.13
49178;BME280;35016;55.674;37.468;2023-10-31T10:12:52;98876.34;;;12.26;69.37
49178;BME280;35016;55.674;37.468;2023-10-31T10:15:19;98876.38;;;12.21;69.31
49178;BME280;35016;55.674;37.468;2023-10-31T10:17:53;98875.53;;;12.25;69.01
49178;BME280;35016;55.674;37.468;2023-10-31T10:20:20;98876.28;;;12.31;69.40
49178;BME280;35016;55.674;37.468;2023-10-31T10:22:47;98870.50;;;12.37;69.50
49178;BME280;35016;55.674;37.468;2023-10-31T10:25:17;98871.56;;;12.41;69.40
49178;BME280;35016;55.674;37.468;2023-10-31T10:27:45;98844.06;;;12.43;69.11
49178;BME280;35016;55.674;37.468;2023-10-31T10:30:14;98854.34;;;12.51;69.09
49178;BME280;35016;55.674;37.468;2023-10-31T10:32:41;98860.81;;;12.55;68.84
49178;BME280;35016;55.674;37.468;2023-10-31T10:35:09;98852.91;;;12.59;68.95
49178;BME280;35016;55.674;37.468;2023-10-31T10:37:38;98842.75;;;12.64;68.88
49178;BME280;35016;55.674;37.468;2023-10-31T10:40:06;98851.69;;;12.70;68.75
49178;BME280;35016;55.674;37.468;2023-10-31T10:42:47;98839.31;;;12.83;67.92
49178;BME280;35016;55.674;37.468;2023-10-31T10:45:16;98834.38;;;12.85;68.38
49178;BME280;35016;55.674;37.468;2023-10-31T10:47:47;98829.47;;;12.87;68.11
49178;BME280;35016;55.674;37.468;2023-10-31T10:50:20;98843.06;;;12.87;68.20
49178;BME280;35016;55.674;37.468;2023-10-31T10:53:07;98834.38;;;12.85;68.56
49178;BME280;35016;55.674;37.468;2023-10-31T10:55:39;98842.53;;;12.85;68.44
49178;BME280;35016;55.674;37.468;2023-10-31T11:01:15;98854.06;;;12.77;68.38
49178;BME280;35016;55.674;37.468;2023-10-31T11:03:46;98854.97;;;12.67;68.47
49178;BME280;35016;55.674;37.468;2023-10-31T11:06:13;98847.47;;;12.59;69.13
49178;BME280;35016;55.674;37.468;2023-10-31T11:08:42;98854.81;;;12.58;69.42
49178;BME280;35016;55.674;37.468;2023-10-31T11:11:10;98858.84;;;12.61;69.66
49178;BME280;35016;55.674;37.468;2023-10-31T11:13:37;98849.00;;;12.65;69.60
49178;BME280;35016;55.674;37.468;2023-10-31T11:16:13;98851.44;;;12.66;69.32
49178;BME280;35016;55.674;37.468;2023-10-31T11:18:46;98847.91;;;12.66;69.41
49178;BME280;35016;55.674;37.468;2023-10-31T11:21:13;98850.06;;;12.69;69.47
49178;BME280;35016;55.674;37.468;2023-10-31T11:23:40;98850.84;;;12.75;69.58
49178;BME280;35016;55.674;37.468;2023-10-31T11:26:08;98846.44;;;12.79;69.67
49178;BME280;35016;55.674;37.468;2023-10-31T11:28:35;98857.25;;;12.84;69.25
49178;BME280;35016;55.674;37.468;2023-10-31T11:31:03;98853.72;;;12.83;69.24
49178;BME280;35016;55.674;37.468;2023-10-31T11:33:31;98848.94;;;12.75;69.11
49178;BME280;35016;55.674;37.468;2023-10-31T11:36:01;98849.66;;;12.57;69.00
49178;BME280;35016;55.674;37.468;2023-10-31T11:38:37;98855.28;;;12.36;69.19
49178;BME280;35016;55.674;37.468;2023-10-31T11:41:05;98845.38;;;12.22;70.00
49178;BME280;35016;55.674;37.468;2023-10-31T11:43:50;98848.47;;;12.10;69.72
49178;BME280;35016;55.674;37.468;2023-10-31T11:46:28;98853.19;;;11.99;70.12
49178;BME280;35016;55.674;37.468;2023-10-31T11:48:56;98845.38;;;11.93;70.30
49178;BME280;35016;55.674;37.468;2023-10-31T11:51:24;98837.22;;;11.93;69.93
49178;BME280;35016;55.674;37.468;2023-10-31T11:53:52;98847.28;;;11.92;70.16
49178;BME280;35016;55.674;37.468;2023-10-31T11:56:21;98837.22;;;11.93;70.42
49178;BME280;35016;55.674;37.468;2023-10-31T11:59:15;98842.06;;;11.96;69.83
49178;BME280;35016;55.674;37.468;2023-10-31T12:01:50;98844.31;;;11.89;69.93
49178;BME280;35016;55.674;37.468;2023-10-31T12:04:22;98841.91;;;11.77;70.39
49178;BME280;35016;55.674;37.468;2023-10-31T12:06:59;98840.66;;;11.64;70.30
49178;BME280;35016;55.674;37.468;2023-10-31T12:09:28;98831.22;;;11.52;71.25
49178;BME280;35016;55.674;37.468;2023-10-31T12:11:57;98833.44;;;11.44;70.77
49178;BME280;35016;55.674;37.468;2023-10-31T12:14:25;98839.19;;;11.38;71.58
49178;BME280;35016;55.674;37.468;2023-10-31T12:16:52;98840.03;;;11.33;71.43
49178;BME280;35016;55.674;37.468;2023-10-31T12:19:20;98835.19;;;11.30;71.01
49178;BME280;35016;55.674;37.468;2023-10-31T12:21:48;98833.28;;;11.31;71.52
49178;BME280;35016;55.674;37.468;2023-10-31T12:24:18;98839.78;;;11.30;71.47
49178;BME280;35016;55.674;37.468;2023-10-31T12:26:46;98843.59;;;11.29;71.21
49178;BME280;35016;55.674;37.468;2023-10-31T12:29:15;98836.03;;;11.21;71.60
49178;BME280;35016;55.674;37.468;2023-10-31T12:31:53;98842.56;;;11.14;71.11
49178;BME280;35016;55.674;37.468;2023-10-31T12:34:22;98847.78;;;11.06;71.92
49178;BME280;35016;55.674;37.468;2023-10-31T12:36:52;98837.75;;;11.01;71.89
49178;BME280;35016;55.674;37.468;2023-10-31T12:39:25;98842.66;;;10.99;71.49
49178;BME280;35016;55.674;37.468;2023-10-31T12:41:53;98837.78;;;10.91;72.36
49178;BME280;35016;55.674;37.468;2023-10-31T12:44:23;98838.66;;;10.81;71.95
49178;BME280;35016;55.674;37.468;2023-10-31T12:46:55;98842.75;;;10.74;72.01
49178;BME280;35016;55.674;37.468;2023-10-31T12:49:23;98848.72;;;10.66;71.84
49178;BME280;35016;55.674;37.468;2023-10-31T12:52:04;98850.91;;;10.64;72.37
49178;BME280;35016;55.674;37.468;2023-10-31T12:54:36;98860.41;;;10.61;72.29
49178;BME280;35016;55.674;37.468;2023-10-31T12:57:08;98869.91;;;10.59;72.40
49178;BME280;35016;55.674;37.468;2023-10-31T12:59:37;98857.44;;;10.52;72.85
49178;BME280;35016;55.674;37.468;2023-10-31T13:02:07;98858.56;;;10.46;72.13
49178;BME280;35016;55.674;37.468;2023-10-31T13:04:36;98848.25;;;10.38;72.92